Big Rapids, MI

2:52 AM EST on January 21, 2017 (GMT -0500)
Big Rapids

Weather History for KRQB - January, 2013

Change the Weather History Date:

Saturday, January 12, 2013

  Actual Average Record
Temperature  
Mean Temperature 44 °F -  
Max Temperature 54 °F 26 °F 54 °F (2013)
Min Temperature 35 °F 10 °F -7 °F (1979)
Degree Days  
Heating Degree Days 20    
Moisture  
Dew Point 38 °F    
Average Humidity 74    
Maximum Humidity 97    
Minimum Humidity 37    
Precipitation  
Precipitation 0.00 in - - ()
Sea Level Pressure  
Sea Level Pressure 29.80 in    
Wind  
Wind Speed 8 mph (SW)    
Max Wind Speed 22 mph    
Max Gust Speed 32 mph    
Visibility 9 miles    
Events Rain , Snow    
Averages and records for this station are not official NWS values.
T = Trace of Precipitation, MM = Missing Value Source: NWS Daily Summary

Daily Weather History Graph

Daily Weather History Graph

Search for Another Location

Airport or City:

Trip Planner

Search our weather history database for the weather conditions in past years. The results will help you decide how hot, cold, wet, or windy it might be!

Date:

Astronomy

Jan. 12, 2013 Rise Set
Actual Time 8:13 AM EST 5:27 PM EST
Civil Twilight 7:41 AM EST 5:59 PM EST
Nautical Twilight 7:06 AM EST 6:35 PM EST
Astronomical Twilight 6:31 AM EST 7:09 PM EST
Moon 8:29 AM EST (1/12) 6:59 PM EST (1/12)
Length of Visible Light 10h 17m
Length of Day
9h 13m
New Moon, 1% of the Moon is Illuminated
Jan 12
New Moon
Jan 18
First Quarter
Jan 26
Full
Feb 3
Last Quarter
Feb 10
New

Hourly Weather History & Observations

Time (EST) Temp. Windchill Dew Point Humidity Pressure Visibility Wind Dir Wind Speed Gust Speed Precip Events Conditions
12:14 AM 45.0 °F 41.8 °F 44.2 °F 97% 29.72 in 4.0 mi SE 5.8 mph - N/A   Overcast
12:35 AM 45.5 °F 43.2 °F 44.8 °F 97% 29.71 in 5.0 mi SSE 4.6 mph - N/A   Overcast
12:54 AM 45.5 °F 44.2 °F 44.6 °F 97% 29.73 in 5.0 mi SSE 3.5 mph - N/A   Overcast
1:14 AM 45.5 °F 43.2 °F 44.6 °F 97% 29.72 in 5.0 mi SE 4.6 mph - N/A   Overcast
1:35 AM 45.5 °F 43.2 °F 44.6 °F 97% 29.71 in 5.0 mi SE 4.6 mph - N/A   Overcast
1:54 AM 45.3 °F - 44.4 °F 97% 29.71 in 4.0 mi Calm Calm - N/A   Overcast
2:14 AM 44.6 °F 42.2 °F 43.9 °F 97% 29.72 in 2.0 mi SSE 4.6 mph - N/A   Overcast
2:35 AM 46.4 °F 43.5 °F 45.5 °F 97% 29.73 in 7.0 mi South 5.8 mph - N/A   Overcast
2:54 AM 47.3 °F - 45.7 °F 94% 29.73 in 10.0 mi SSW 9.2 mph - N/A   Mostly Cloudy
3:14 AM 47.5 °F - 45.5 °F 93% 29.73 in 10.0 mi SSW 10.4 mph - N/A   Scattered Clouds
3:35 AM 47.7 °F - 45.7 °F 93% 29.72 in 10.0 mi SSW 8.1 mph 16.1 mph N/A   Clear
3:54 AM 47.7 °F - 45.7 °F 93% 29.72 in 10.0 mi SSW 8.1 mph 19.6 mph N/A   Clear
4:14 AM 48.0 °F - 45.9 °F 92% 29.71 in 10.0 mi SSW 11.5 mph 19.6 mph N/A   Clear
4:35 AM 48.2 °F - 45.7 °F 91% 29.71 in 10.0 mi SSW 8.1 mph - N/A   Clear
4:54 AM 48.4 °F - 45.9 °F 91% 29.70 in 10.0 mi SSW 9.2 mph 17.3 mph N/A   Clear
5:14 AM 48.2 °F - 45.7 °F 91% 29.70 in 10.0 mi SSW 8.1 mph - N/A   Clear
5:35 AM 48.2 °F - 45.5 °F 90% 29.69 in 10.0 mi South 6.9 mph - N/A   Clear
5:54 AM 48.2 °F - 45.5 °F 90% 29.70 in 10.0 mi SSW 6.9 mph - N/A   Clear
6:14 AM 48.4 °F - 45.3 °F 89% 29.70 in 10.0 mi SSW 8.1 mph 17.3 mph N/A   Clear
6:35 AM 48.4 °F - 45.5 °F 90% 29.71 in 10.0 mi SSW 9.2 mph - N/A   Clear
6:54 AM 48.6 °F - 45.5 °F 89% 29.71 in 10.0 mi SSW 10.4 mph 16.1 mph N/A   Clear
7:14 AM 48.2 °F - 45.3 °F 90% 29.71 in 10.0 mi South 9.2 mph - N/A   Clear
7:35 AM 48.6 °F - 45.5 °F 89% 29.71 in 10.0 mi South 9.2 mph 20.7 mph N/A   Clear
7:54 AM 48.4 °F - 45.5 °F 90% 29.72 in 10.0 mi SSW 8.1 mph 20.7 mph N/A   Clear
8:14 AM 48.2 °F - 45.3 °F 90% 29.72 in 10.0 mi SSW 9.2 mph 18.4 mph N/A   Clear
8:34 AM 47.8 °F - 45.0 °F 90% 29.73 in 10.0 mi South 10.4 mph 18.4 mph N/A   Clear
8:54 AM 48.6 °F - 45.5 °F 89% 29.74 in 10.0 mi SSW 10.4 mph 20.7 mph N/A   Clear
9:15 AM 49.6 °F - 46.0 °F 87% 29.75 in 10.0 mi SSW 12.7 mph 21.9 mph N/A   Clear
9:34 AM 50.0 °F - 45.9 °F 86% 29.76 in 10.0 mi SSW 13.8 mph 20.7 mph N/A   Clear
9:54 AM 50.9 °F - 46.0 °F 83% 29.77 in 10.0 mi SW 13.8 mph 20.7 mph N/A   Clear
10:15 AM 51.4 °F - 46.4 °F 83% 29.77 in 10.0 mi SSW 12.7 mph 23.0 mph N/A   Clear
10:34 AM 52.7 °F - 46.6 °F 80% 29.78 in 10.0 mi SW 11.5 mph 20.7 mph N/A   Clear
10:54 AM 53.1 °F - 43.9 °F 71% 29.78 in 10.0 mi WSW 16.1 mph 26.5 mph N/A   Scattered Clouds
11:15 AM 53.1 °F - 43.5 °F 70% 29.78 in 10.0 mi SW 18.4 mph 28.8 mph N/A   Mostly Cloudy
11:34 AM 53.4 °F - 42.8 °F 67% 29.78 in 10.0 mi WSW 19.6 mph 29.9 mph N/A   Scattered Clouds
11:54 AM 53.6 °F - 40.6 °F 62% 29.79 in 10.0 mi SW 21.9 mph 29.9 mph N/A   Clear
12:15 PM 53.6 °F - 40.3 °F 61% 29.79 in 10.0 mi WSW 10.4 mph 24.2 mph N/A   Clear
12:34 PM 54.0 °F - 38.7 °F 56% 29.79 in 10.0 mi SW 17.3 mph 32.2 mph N/A   Clear
12:54 PM 53.2 °F - 37.8 °F 56% 29.79 in 10.0 mi SW 15.0 mph 25.3 mph N/A   Clear
1:14 PM 52.7 °F - 35.8 °F 53% 29.81 in 10.0 mi WSW 15.0 mph 29.9 mph N/A   Clear
1:34 PM 52.7 °F - 36.1 °F 53% 29.81 in 10.0 mi WSW 15.0 mph 24.2 mph N/A   Clear
1:55 PM 52.5 °F - 34.3 °F 50% 29.81 in 10.0 mi WSW 12.7 mph 26.5 mph N/A   Clear
2:14 PM 52.2 °F - 32.5 °F 47% 29.81 in 10.0 mi WSW 12.7 mph 21.9 mph N/A   Clear
2:34 PM 52.2 °F - 32.2 °F 47% 29.83 in 10.0 mi WSW 12.7 mph 23.0 mph N/A   Clear
2:55 PM 50.7 °F - 32.0 °F 49% 29.84 in 10.0 mi WSW 9.2 mph 20.7 mph N/A   Clear
3:14 PM 50.7 °F - 26.4 °F 39% 29.84 in 10.0 mi WSW 11.5 mph 23.0 mph N/A   Clear
3:34 PM 49.5 °F - 26.1 °F 40% 29.86 in 10.0 mi WSW 8.1 mph 18.4 mph N/A   Clear
3:55 PM 48.7 °F - 25.0 °F 40% 29.87 in 10.0 mi SW 13.8 mph 19.6 mph N/A   Clear
4:14 PM 47.8 °F - 22.3 °F 37% 29.87 in 10.0 mi WSW 11.5 mph 18.4 mph N/A   Clear
4:34 PM 46.9 °F - 23.2 °F 39% 29.87 in 10.0 mi WSW 8.1 mph 16.1 mph N/A   Clear
4:54 PM 45.7 °F 42.0 °F 23.9 °F 42% 29.86 in 10.0 mi WSW 6.9 mph - N/A   Clear
5:15 PM 44.4 °F 40.5 °F 25.7 °F 48% 29.88 in 10.0 mi SW 6.9 mph 16.1 mph N/A   Clear
5:34 PM 43.2 °F 39.0 °F 27.5 °F 54% 29.89 in 10.0 mi SW 6.9 mph - N/A   Clear
5:54 PM 42.4 °F 37.0 °F 28.2 °F 57% 29.90 in 10.0 mi SW 9.2 mph - N/A   Clear
6:14 PM 41.5 °F 37.8 °F 28.8 °F 60% 29.91 in 10.0 mi SW 5.8 mph - N/A   Clear
6:34 PM 41.0 °F 36.4 °F 28.9 °F 62% 29.91 in 10.0 mi WSW 6.9 mph - N/A   Clear
6:54 PM 40.5 °F 37.3 °F 29.3 °F 64% 29.91 in 10.0 mi WSW 4.6 mph - N/A   Clear
7:14 PM 39.7 °F 37.6 °F 29.8 °F 68% 29.90 in 10.0 mi WSW 3.5 mph - N/A   Scattered Clouds
7:34 PM 39.2 °F 35.9 °F 29.8 °F 69% 29.90 in 10.0 mi WSW 4.6 mph - N/A   Clear
8:14 PM 38.3 °F 33.9 °F 29.8 °F 72% 29.90 in 10.0 mi SW 5.8 mph - N/A   Clear
8:34 PM 38.1 °F 34.6 °F 30.0 °F 73% 29.90 in 10.0 mi SW 4.6 mph - N/A   Scattered Clouds
8:55 PM 37.9 °F 33.5 °F 29.3 °F 71% 29.90 in 10.0 mi WSW 5.8 mph - N/A   Clear
9:14 PM 37.6 °F - 29.1 °F 72% 29.89 in 10.0 mi Calm Calm - N/A   Clear
9:34 PM 37.6 °F - 29.3 °F 72% 29.89 in 10.0 mi Calm Calm - N/A   Mostly Cloudy
9:55 PM 37.2 °F 33.6 °F 29.7 °F 74% 29.89 in 10.0 mi NW 4.6 mph - N/A   Overcast
10:14 PM 37.0 °F 32.4 °F 30.0 °F 76% 29.90 in 10.0 mi WNW 5.8 mph - N/A   Overcast
10:34 PM 37.0 °F 32.4 °F 30.2 °F 76% 29.90 in 10.0 mi NW 5.8 mph - N/A   Overcast
10:55 PM 36.9 °F 30.1 °F 30.6 °F 78% 29.91 in 10.0 mi NW 9.2 mph - N/A   Overcast
11:14 PM 36.3 °F 30.1 °F 30.2 °F 78% 29.90 in 10.0 mi NNW 8.1 mph - N/A Snow Light Snow
11:34 PM 35.6 °F 29.9 °F 29.3 °F 78% 29.89 in 10.0 mi NNW 6.9 mph - N/A Snow Light Snow
11:54 PM 35.1 °F 31.0 °F 29.1 °F 79% 29.89 in 10.0 mi NNW 4.6 mph - N/A Rain Light Rain